Bay State Village, Massachusetts
Current Conditions -  °F | °C
As of 10:58 PM on Sunday 19 Oct 2014 (Local Time) from KCEF Reporting Station
Few Clouds Few Clouds  
Wind Chill: 33°   Ceiling: Unl
Heat Index: 41°   Visibility: 10mi
Dew Point: 25°   Wind: 14mph
Humidity: 54%   Direction: 330°NNW
Pressure: 29.99"   Gusts: NA
Location:  42.3249°N, 72.6582°W
Report Text: KCEF 200258Z AUTO 33012KT 10SM FEW048 05/M04 A2999 RMK AO2 SLP163 T00481037 52010
Loading
Personal Weather Stations






























Interactive Weather Map New forecast layout! Learn more

10-Day Weather Forecast

Advertisements
Track Severe Weather on mobile